Time;durP1;ratioP1;P1;durP2;ratioP2;P2;SDS_P1;SDS_P2;PMS_P1;PMS_P2;Temp;Humidity;BMP_temperature;BMP_pressure;BME280_temperature;BME280_humidity;BME280_pressure;Samples;Min_cycle;Max_cycle;Signal;HPM_P1;HPM_P2
2022/03/11 00:02:33;;;;;;;;;;;0.00;99.90;;;;;;5074022;28;19928;-54
2022/03/11 00:05:00;;;;;;;;;;;0.00;99.90;;;;;;5073029;28;19975;-54
2022/03/11 00:07:27;;;;;;;;;;;-0.10;99.90;;;;;;5061969;28;20027;-55
2022/03/11 00:09:54;;;;;;;;;;;-0.10;99.90;;;;;;5073331;28;19920;-58
2022/03/11 00:12:20;;;;;;;;;;;0.00;99.90;;;;;;5073971;28;20014;-53
2022/03/11 00:14:47;;;;;;;;;;;0.00;99.90;;;;;;5068588;28;19936;-57
2022/03/11 00:17:14;;;;;;;;;;;0.10;99.90;;;;;;5073258;28;19928;-54
2022/03/11 00:19:41;;;;;;;;;;;0.10;99.90;;;;;;5073376;28;19950;-57
2022/03/11 00:22:08;;;;;;;;;;;0.00;99.90;;;;;;5073633;28;20006;-57
2022/03/11 00:24:34;;;;;;;;;;;0.00;99.90;;;;;;5064687;28;19924;-58
2022/03/11 00:27:01;;;;;;;;;;;0.00;99.90;;;;;;5073376;28;19960;-55
2022/03/11 00:29:29;;;;;;;;;;;0.00;99.90;;;;;;5055143;28;20349;-57
2022/03/11 00:31:56;;;;;;;;;;;0.00;99.90;;;;;;5064598;28;19932;-54
2022/03/11 00:34:23;;;;;;;;;;;0.00;99.90;;;;;;5073093;28;20003;-56
2022/03/11 00:36:50;;;;;;;;;;;-0.10;99.90;;;;;;5055504;28;19924;-57
2022/03/11 00:39:18;;;;;;;;;;;-0.20;99.90;;;;;;5072724;28;19928;-57
2022/03/11 00:41:45;;;;;;;;;;;-0.20;99.90;;;;;;5061580;28;19947;-55
2022/03/11 00:44:12;;;;;;;;;;;-0.20;99.90;;;;;;5073208;28;19978;-55
2022/03/11 00:46:39;;;;;;;;;;;-0.20;99.90;;;;;;5073237;28;19969;-57
2022/03/11 00:49:05;;;;;;;;;;;-0.20;99.90;;;;;;5072648;28;19920;-57
2022/03/11 00:51:33;;;;;;;;;;;-0.30;99.90;;;;;;5058813;28;20311;-57
2022/03/11 00:53:59;;;;;;;;;;;-0.40;99.90;;;;;;5071901;28;19924;-57
2022/03/11 00:56:28;;;;;;;;;;;-0.40;99.90;;;;;;5073055;28;20011;-58
2022/03/11 00:58:55;;;;;;;;;;;-0.40;99.90;;;;;;5071951;28;19920;-55
2022/03/11 01:01:22;;;;;;;;;;;-0.40;99.90;;;;;;5060219;28;19924;-56
2022/03/11 01:03:49;;;;;;;;;;;-0.30;99.90;;;;;;5072682;28;19974;-57
2022/03/11 01:06:16;;;;;;;;;;;-0.30;99.90;;;;;;5072593;28;19924;-56
2022/03/11 01:08:42;;;;;;;;;;;-0.30;99.90;;;;;;5068549;28;19982;-55
2022/03/11 01:11:11;;;;;;;;;;;-0.30;99.90;;;;;;5032628;28;20294;-55
2022/03/11 01:13:38;;;;;;;;;;;-0.30;99.90;;;;;;5032735;28;19986;-56
2022/03/11 01:16:05;;;;;;;;;;;-0.30;99.90;;;;;;5038555;28;20331;-56
2022/03/11 01:18:32;;;;;;;;;;;-0.40;99.90;;;;;;5072415;28;19960;-56
2022/03/11 01:20:59;;;;;;;;;;;-0.40;99.90;;;;;;5072308;28;19924;-57
2022/03/11 01:23:26;;;;;;;;;;;-0.40;99.90;;;;;;5063364;28;20348;-56
2022/03/11 01:25:53;;;;;;;;;;;-0.40;99.90;;;;;;5067846;28;19927;-56
2022/03/11 01:28:20;;;;;;;;;;;-0.40;99.90;;;;;;5072047;28;19927;-56
2022/03/11 01:30:46;;;;;;;;;;;-0.40;99.90;;;;;;5072112;28;19921;-57
2022/03/11 01:33:13;;;;;;;;;;;-0.30;99.90;;;;;;5061585;28;19944;-57
2022/03/11 01:35:41;;;;;;;;;;;-0.30;99.90;;;;;;5072163;28;20400;-57
2022/03/11 01:38:08;;;;;;;;;;;-0.40;99.90;;;;;;5071989;28;20343;-56
2022/03/11 01:40:34;;;;;;;;;;;-0.40;99.90;;;;;;5071653;28;20019;-56
2022/03/11 01:43:01;;;;;;;;;;;-0.40;99.90;;;;;;5062238;28;20396;-58
2022/03/11 01:45:28;;;;;;;;;;;-0.40;99.90;;;;;;5072138;28;19970;-54
2022/03/11 01:47:55;;;;;;;;;;;-0.40;99.90;;;;;;5071885;28;19930;-56
2022/03/11 01:50:22;;;;;;;;;;;-0.50;99.90;;;;;;5059760;28;19921;-55
2022/03/11 01:52:49;;;;;;;;;;;-0.50;99.90;;;;;;5041218;28;19974;-54
2022/03/11 01:55:16;;;;;;;;;;;-0.50;99.90;;;;;;5055011;28;19983;-54
2022/03/11 01:57:47;;;;;;;;;;;-0.40;99.90;;;;;;5054193;28;19921;-54
2022/03/11 02:00:14;;;;;;;;;;;-0.40;99.90;;;;;;5058201;28;19931;-56
2022/03/11 02:02:41;;;;;;;;;;;-0.50;99.90;;;;;;5054247;28;19931;-53
2022/03/11 02:05:08;;;;;;;;;;;-0.50;99.90;;;;;;5067759;28;19925;-57
2022/03/11 02:07:35;;;;;;;;;;;-0.50;99.90;;;;;;5048857;28;20385;-57
2022/03/11 02:10:02;;;;;;;;;;;-0.60;99.90;;;;;;5069061;28;20296;-57
2022/03/11 02:12:30;;;;;;;;;;;-0.60;99.90;;;;;;5053755;28;19929;-55
2022/03/11 02:14:57;;;;;;;;;;;-0.70;99.90;;;;;;5068837;28;20025;-57
2022/03/11 02:17:24;;;;;;;;;;;-0.70;99.90;;;;;;5052731;28;19921;-55
2022/03/11 02:19:51;;;;;;;;;;;-0.80;99.90;;;;;;5068757;28;20014;-57
2022/03/11 02:22:21;;;;;;;;;;;-0.80;99.90;;;;;;5054405;28;19924;-57
2022/03/11 02:24:48;;;;;;;;;;;-0.90;99.90;;;;;;5062723;28;19931;-56
2022/03/11 02:27:15;;;;;;;;;;;-0.90;99.90;;;;;;5055105;28;19920;-56
2022/03/11 02:29:41;;;;;;;;;;;-0.90;99.90;;;;;;5067345;28;19924;-53
2022/03/11 02:32:09;;;;;;;;;;;-0.90;99.90;;;;;;5056856;28;19924;-56
2022/03/11 02:34:39;;;;;;;;;;;-0.90;99.90;;;;;;5048536;28;19927;-57
2022/03/11 02:37:05;;;;;;;;;;;-0.90;99.90;;;;;;5057096;28;19920;-56
2022/03/11 02:39:32;;;;;;;;;;;-0.80;99.90;;;;;;5069870;22;19927;-61
2022/03/11 02:42:00;;;;;;;;;;;-0.70;99.90;;;;;;5063438;28;19921;-61
2022/03/11 02:44:29;;;;;;;;;;;-0.70;99.90;;;;;;5063998;28;19967;-61
2022/03/11 02:46:59;;;;;;;;;;;-0.70;99.90;;;;;;5059626;28;19921;-60
2022/03/11 02:49:29;;;;;;;;;;;-0.70;99.90;;;;;;5056858;28;19948;-61
2022/03/11 02:51:56;;;;;;;;;;;-0.70;99.90;;;;;;5051398;28;20392;-61
2022/03/11 02:54:24;;;;;;;;;;;-0.60;99.90;;;;;;5051490;28;20479;-61
2022/03/11 02:56:51;;;;;;;;;;;-0.70;99.90;;;;;;5034964;28;20398;-61
2022/03/11 02:59:18;;;;;;;;;;;-0.80;99.90;;;;;;5040342;28;20294;-61
2022/03/11 03:01:45;;;;;;;;;;;-0.80;99.90;;;;;;5039710;28;19947;-61
2022/03/11 03:04:12;;;;;;;;;;;-0.80;99.90;;;;;;5051274;28;19955;-61
2022/03/11 03:06:39;;;;;;;;;;;-0.80;99.90;;;;;;5048362;28;19920;-61
2022/03/11 03:09:06;;;;;;;;;;;-0.90;99.90;;;;;;5048203;28;19924;-61
2022/03/11 03:11:34;;;;;;;;;;;-0.90;99.90;;;;;;5043469;28;19932;-61
2022/03/11 03:14:00;;;;;;;;;;;-0.80;99.90;;;;;;5051280;28;19928;-61
2022/03/11 03:16:27;;;;;;;;;;;-0.80;99.90;;;;;;5041433;28;19921;-61
2022/03/11 03:18:54;;;;;;;;;;;-0.80;99.90;;;;;;5043798;28;19961;-61
2022/03/11 03:21:22;;;;;;;;;;;-0.80;99.90;;;;;;5034714;28;19921;-61
2022/03/11 03:23:49;;;;;;;;;;;-0.90;99.90;;;;;;5022468;28;20346;-61
2022/03/11 03:26:15;;;;;;;;;;;-0.90;99.90;;;;;;5054568;28;19925;-61
2022/03/11 03:28:42;;;;;;;;;;;-0.80;99.90;;;;;;5054547;28;19924;-61
2022/03/11 03:31:13;;;;;;;;;;;-0.80;99.90;;;;;;5054521;28;19921;-61
2022/03/11 03:33:40;;;;;;;;;;;-0.80;99.90;;;;;;5049876;28;19966;-61
2022/03/11 03:36:06;;;;;;;;;;;-0.70;99.90;;;;;;5054225;28;19924;-61
2022/03/11 03:38:33;;;;;;;;;;;-0.60;99.90;;;;;;5054100;28;19921;-61
2022/03/11 03:41:00;;;;;;;;;;;-0.60;99.90;;;;;;5053886;28;20381;-61
2022/03/11 03:43:28;;;;;;;;;;;-0.60;99.90;;;;;;5048572;28;20023;-61
2022/03/11 03:45:55;;;;;;;;;;;-0.60;99.90;;;;;;5054308;28;19947;-61
2022/03/11 03:48:22;;;;;;;;;;;-0.70;99.90;;;;;;5054069;28;19920;-61
2022/03/11 03:50:49;;;;;;;;;;;-0.70;99.90;;;;;;5052740;28;19978;-61
2022/03/11 03:53:15;;;;;;;;;;;-0.80;99.90;;;;;;5040423;28;19993;-61
2022/03/11 03:55:42;;;;;;;;;;;-0.90;99.90;;;;;;5054020;28;19925;-61
2022/03/11 03:58:10;;;;;;;;;;;-1.00;99.90;;;;;;5052829;28;19948;-61
2022/03/11 04:00:36;;;;;;;;;;;-1.00;99.90;;;;;;5046901;28;19920;-61
2022/03/11 04:03:04;;;;;;;;;;;-1.00;99.90;;;;;;5053969;28;19974;-61
2022/03/11 04:05:30;;;;;;;;;;;-1.10;99.90;;;;;;5053791;28;20300;-61
2022/03/11 04:07:57;;;;;;;;;;;-1.10;99.90;;;;;;5051201;28;19921;-61
2022/03/11 04:10:24;;;;;;;;;;;-1.10;99.90;;;;;;5034281;28;19921;-61
2022/03/11 04:12:51;;;;;;;;;;;-1.10;99.90;;;;;;5053653;28;19920;-61
2022/03/11 04:15:18;;;;;;;;;;;-1.00;99.90;;;;;;5053915;28;20373;-61
2022/03/11 04:17:44;;;;;;;;;;;-1.00;99.90;;;;;;5042309;28;19998;-61
2022/03/11 04:20:11;;;;;;;;;;;-1.00;99.90;;;;;;5053252;28;19925;-61
2022/03/11 04:22:42;;;;;;;;;;;-1.00;99.90;;;;;;5052288;28;20064;-61
2022/03/11 04:25:10;;;;;;;;;;;-1.00;99.90;;;;;;5038738;28;19921;-61
2022/03/11 04:27:37;;;;;;;;;;;-1.10;99.90;;;;;;5052942;28;20270;-61
2022/03/11 04:30:05;;;;;;;;;;;-1.00;99.90;;;;;;5052912;28;19934;-61
2022/03/11 04:32:31;;;;;;;;;;;-1.00;99.90;;;;;;5026832;28;20385;-61
2022/03/11 04:34:58;;;;;;;;;;;-1.00;99.90;;;;;;5029755;28;19920;-61
2022/03/11 04:37:25;;;;;;;;;;;-1.10;99.90;;;;;;5037005;28;19936;-61
2022/03/11 04:39:52;;;;;;;;;;;-1.10;99.90;;;;;;5032623;28;20288;-61
2022/03/11 04:42:18;;;;;;;;;;;-1.20;99.90;;;;;;5032699;28;20515;-61
2022/03/11 04:44:45;;;;;;;;;;;-1.20;99.90;;;;;;5030173;28;19955;-61
2022/03/11 04:47:12;;;;;;;;;;;-1.20;99.90;;;;;;5032739;28;19921;-61
2022/03/11 04:49:39;;;;;;;;;;;-1.20;99.90;;;;;;5032751;28;20338;-61
2022/03/11 04:52:07;;;;;;;;;;;-1.10;99.90;;;;;;5042486;28;19927;-61
2022/03/11 04:54:34;;;;;;;;;;;-1.10;99.90;;;;;;5051690;28;19967;-61
2022/03/11 04:57:01;;;;;;;;;;;-1.10;99.90;;;;;;5050445;28;19929;-61
2022/03/11 04:59:28;;;;;;;;;;;-1.10;99.90;;;;;;5030025;28;19921;-61
2022/03/11 05:01:55;;;;;;;;;;;-1.00;99.90;;;;;;5029907;28;19925;-61
2022/03/11 05:04:22;;;;;;;;;;;-1.00;99.90;;;;;;5027526;28;19921;-61
2022/03/11 05:06:48;;;;;;;;;;;-1.00;99.90;;;;;;5030152;28;19925;-61
2022/03/11 05:09:15;;;;;;;;;;;-1.10;99.90;;;;;;5028158;28;19966;-61
2022/03/11 05:11:42;;;;;;;;;;;-1.20;99.90;;;;;;5052757;28;19947;-61
2022/03/11 05:14:09;;;;;;;;;;;-1.20;99.90;;;;;;5032710;28;19921;-61
2022/03/11 05:16:35;;;;;;;;;;;-1.10;99.90;;;;;;5026147;28;19925;-61
2022/03/11 05:19:03;;;;;;;;;;;-1.10;99.90;;;;;;5050174;28;19927;-61
2022/03/11 05:21:30;;;;;;;;;;;-1.00;99.90;;;;;;5052537;28;19921;-61
2022/03/11 05:23:57;;;;;;;;;;;-1.00;99.90;;;;;;5037572;28;19976;-61
2022/03/11 05:26:28;;;;;;;;;;;-0.90;99.90;;;;;;5038435;28;20011;-61
2022/03/11 05:28:56;;;;;;;;;;;-0.90;99.90;;;;;;5049781;28;19921;-61
2022/03/11 05:31:24;;;;;;;;;;;-0.90;99.90;;;;;;5052512;28;19925;-61
2022/03/11 05:33:51;;;;;;;;;;;-0.90;99.90;;;;;;5035644;28;19975;-61
2022/03/11 05:36:18;;;;;;;;;;;-1.00;99.90;;;;;;5038220;28;20301;-61
2022/03/11 05:38:44;;;;;;;;;;;-1.10;99.90;;;;;;5023710;28;20432;-61
2022/03/11 05:41:12;;;;;;;;;;;-1.10;99.90;;;;;;5030599;28;19957;-61
2022/03/11 05:43:39;;;;;;;;;;;-1.10;99.90;;;;;;5052073;28;19920;-61
2022/03/11 05:46:06;;;;;;;;;;;-1.20;99.90;;;;;;5038988;28;20007;-61
2022/03/11 05:48:33;;;;;;;;;;;-1.30;99.90;;;;;;5043762;28;19967;-61
2022/03/11 05:51:05;;;;;;;;;;;-1.40;99.90;;;;;;5030905;28;19929;-61
2022/03/11 05:53:31;;;;;;;;;;;-1.50;99.90;;;;;;5051569;28;19921;-61
2022/03/11 05:55:58;;;;;;;;;;;-1.50;99.90;;;;;;5032108;28;19921;-60
2022/03/11 05:58:25;;;;;;;;;;;-1.50;99.90;;;;;;5013980;28;19921;-61
2022/03/11 06:00:52;;;;;;;;;;;-1.50;99.90;;;;;;5014032;28;20434;-61
2022/03/11 06:03:20;;;;;;;;;;;-1.50;99.90;;;;;;5012728;28;19937;-61
2022/03/11 06:05:47;;;;;;;;;;;-1.50;99.90;;;;;;5017450;28;20543;-61
2022/03/11 06:08:15;;;;;;;;;;;-1.50;99.90;;;;;;5016111;28;19928;-61
2022/03/11 06:10:42;;;;;;;;;;;-1.40;99.90;;;;;;5017191;28;19964;-61
2022/03/11 06:13:09;;;;;;;;;;;-1.30;99.90;;;;;;5013406;28;19921;-61
2022/03/11 06:15:36;;;;;;;;;;;-1.30;99.90;;;;;;5027257;28;19921;-61
2022/03/11 06:18:03;;;;;;;;;;;-1.20;99.90;;;;;;5012505;28;19996;-61
2022/03/11 06:20:32;;;;;;;;;;;-1.10;99.90;;;;;;5011902;28;19928;-61
2022/03/11 06:22:59;;;;;;;;;;;-1.10;99.90;;;;;;5032006;28;19921;-61
2022/03/11 06:25:26;;;;;;;;;;;-1.20;99.90;;;;;;5050431;28;19924;-61
2022/03/11 06:27:53;;;;;;;;;;;-1.20;99.90;;;;;;5051338;28;19967;-61
2022/03/11 06:30:20;;;;;;;;;;;-1.20;99.90;;;;;;5051527;28;19967;-62
2022/03/11 06:32:48;;;;;;;;;;;-1.20;99.90;;;;;;5035057;28;20072;-61
2022/03/11 06:35:17;;;;;;;;;;;-1.20;99.90;;;;;;5051403;28;19928;-61
2022/03/11 06:37:45;;;;;;;;;;;-1.20;99.90;;;;;;5041456;28;20416;-61
2022/03/11 06:40:12;;;;;;;;;;;-1.30;99.90;;;;;;5035471;28;19921;-61
2022/03/11 06:42:40;;;;;;;;;;;-1.30;99.90;;;;;;5013125;28;19922;-61
2022/03/11 06:45:08;;;;;;;;;;;-1.30;99.90;;;;;;5022997;28;19925;-61
2022/03/11 06:47:34;;;;;;;;;;;-1.20;99.90;;;;;;5031498;28;19928;-61
2022/03/11 06:50:02;;;;;;;;;;;-1.10;99.90;;;;;;5036711;28;19920;-61
2022/03/11 06:52:29;;;;;;;;;;;-1.10;99.90;;;;;;5053314;28;19971;-61
2022/03/11 06:54:56;;;;;;;;;;;-1.10;99.90;;;;;;5016663;28;19921;-61
2022/03/11 06:57:23;;;;;;;;;;;-1.00;99.90;;;;;;5025186;28;19925;-61
2022/03/11 06:59:49;;;;;;;;;;;-1.00;99.90;;;;;;5054529;28;20007;-62
2022/03/11 07:02:16;;;;;;;;;;;-0.90;99.90;;;;;;5055037;28;19967;-61
2022/03/11 07:04:44;;;;;;;;;;;-0.70;99.90;;;;;;5054994;28;20407;-61
2022/03/11 07:07:11;;;;;;;;;;;-0.60;99.90;;;;;;5046810;28;20384;-61
2022/03/11 07:09:37;;;;;;;;;;;-0.40;99.90;;;;;;5054493;28;19975;-61
2022/03/11 07:12:05;;;;;;;;;;;-0.20;99.90;;;;;;5054854;28;19967;-61
2022/03/11 07:14:36;;;;;;;;;;;0.00;99.90;;;;;;5055138;28;19982;-61
2022/03/11 07:17:03;;;;;;;;;;;0.10;99.90;;;;;;5044895;28;19921;-61
2022/03/11 07:19:31;;;;;;;;;;;0.30;99.90;;;;;;5054387;28;19926;-61
2022/03/11 07:21:59;;;;;;;;;;;0.40;99.90;;;;;;5054554;28;19921;-61
2022/03/11 07:24:26;;;;;;;;;;;0.60;99.90;;;;;;5054941;28;19920;-61
2022/03/11 07:26:53;;;;;;;;;;;0.80;99.90;;;;;;5044746;28;19967;-61
2022/03/11 07:29:20;;;;;;;;;;;0.90;99.90;;;;;;5054249;28;19921;-61
2022/03/11 07:31:46;;;;;;;;;;;1.00;99.90;;;;;;5052316;28;20439;-61
2022/03/11 07:34:14;;;;;;;;;;;1.10;99.90;;;;;;5044074;28;19921;-61
2022/03/11 07:36:41;;;;;;;;;;;1.20;99.90;;;;;;5053926;28;19921;-61
2022/03/11 07:39:08;;;;;;;;;;;1.30;99.90;;;;;;5053874;28;19975;-61
2022/03/11 07:41:35;;;;;;;;;;;1.50;99.90;;;;;;5054280;28;19921;-61
2022/03/11 07:44:02;;;;;;;;;;;1.60;99.90;;;;;;5041141;28;20037;-61
2022/03/11 07:46:49;;;;;;;;;;;1.70;99.90;;;;;;5053960;28;20385;-61
2022/03/11 07:49:17;;;;;;;;;;;1.70;99.90;;;;;;5046581;28;19928;-61
2022/03/11 07:51:43;;;;;;;;;;;1.70;99.90;;;;;;5042360;28;19929;-61
2022/03/11 07:54:10;;;;;;;;;;;1.80;99.90;;;;;;5043664;28;20335;-61
2022/03/11 07:56:37;;;;;;;;;;;2.00;99.90;;;;;;5053914;28;19932;-61
2022/03/11 07:59:06;;;;;;;;;;;2.10;99.90;;;;;;5053706;28;20431;-61
2022/03/11 08:01:33;;;;;;;;;;;2.20;99.90;;;;;;5042466;28;19921;-61
2022/03/11 08:04:00;;;;;;;;;;;2.30;99.90;;;;;;5050036;28;19956;-61
2022/03/11 08:06:27;;;;;;;;;;;2.50;99.90;;;;;;5054073;28;19920;-60
2022/03/11 08:08:58;;;;;;;;;;;2.60;99.90;;;;;;5049218;28;20282;-60
2022/03/11 08:11:25;;;;;;;;;;;2.70;99.90;;;;;;5041329;28;19925;-61
2022/03/11 08:13:51;;;;;;;;;;;2.80;99.90;;;;;;5053823;28;20335;-61
2022/03/11 08:16:20;;;;;;;;;;;2.90;99.90;;;;;;5053776;28;19925;-61
2022/03/11 08:18:47;;;;;;;;;;;3.00;99.90;;;;;;5049363;28;19975;-61
2022/03/11 08:21:16;;;;;;;;;;;3.10;99.90;;;;;;5051702;28;20468;-60
2022/03/11 08:23:43;;;;;;;;;;;3.10;99.90;;;;;;5053378;28;20427;-61
2022/03/11 08:26:11;;;;;;;;;;;3.20;99.90;;;;;;5053585;28;19951;-61
2022/03/11 08:28:44;;;;;;;;;;;3.40;99.90;;;;;;5043615;28;19974;-61
2022/03/11 08:31:32;;;;;;;;;;;3.50;99.90;;;;;;5053233;28;20374;-61
2022/03/11 08:34:00;;;;;;;;;;;3.60;99.90;;;;;;5053309;28;20325;-61
2022/03/11 08:36:27;;;;;;;;;;;3.60;99.90;;;;;;5046137;28;19971;-61
2022/03/11 08:38:54;;;;;;;;;;;3.80;99.90;;;;;;5068993;22;19920;-55
2022/03/11 08:41:22;;;;;;;;;;;3.80;99.90;;;;;;5064092;28;19920;-54
2022/03/11 08:43:49;;;;;;;;;;;4.00;99.90;;;;;;5060725;28;19932;-57
2022/03/11 08:46:16;;;;;;;;;;;4.20;99.90;;;;;;5064748;28;19928;-56
2022/03/11 08:48:46;;;;;;;;;;;4.20;99.90;;;;;;5072679;28;19928;-56
2022/03/11 08:51:13;;;;;;;;;;;4.30;99.90;;;;;;5072789;28;19920;-51
2022/03/11 08:53:40;;;;;;;;;;;4.40;99.90;;;;;;5059664;28;19924;-57
2022/03/11 08:56:06;;;;;;;;;;;4.50;99.90;;;;;;5072471;28;19931;-58
2022/03/11 08:58:33;;;;;;;;;;;4.60;99.90;;;;;;5072666;28;19924;-56
2022/03/11 09:01:00;;;;;;;;;;;4.70;99.90;;;;;;5066067;28;20463;-57
2022/03/11 09:03:27;;;;;;;;;;;4.80;99.90;;;;;;5064282;28;19920;-57
2022/03/11 09:05:54;;;;;;;;;;;4.90;99.90;;;;;;5072932;28;19927;-58
2022/03/11 09:08:21;;;;;;;;;;;5.00;99.40;;;;;;5052429;28;19978;-59
2022/03/11 09:10:48;;;;;;;;;;;5.10;97.90;;;;;;5045968;28;19928;-58
2022/03/11 09:13:15;;;;;;;;;;;5.20;97.40;;;;;;5064147;28;19920;-56
2022/03/11 09:15:42;;;;;;;;;;;5.40;98.20;;;;;;5072365;28;19926;-57
2022/03/11 09:18:10;;;;;;;;;;;5.50;95.80;;;;;;5071972;28;19928;-56
2022/03/11 09:20:38;;;;;;;;;;;5.50;95.20;;;;;;5055444;28;19966;-59
2022/03/11 09:23:06;;;;;;;;;;;5.60;95.60;;;;;;5064023;28;20369;-58
2022/03/11 09:25:33;;;;;;;;;;;5.80;96.30;;;;;;5072483;28;19939;-58
2022/03/11 09:28:04;;;;;;;;;;;5.90;96.20;;;;;;5072235;28;19966;-58
2022/03/11 09:30:31;;;;;;;;;;;6.10;95.90;;;;;;5061688;28;19924;-57
2022/03/11 09:32:58;;;;;;;;;;;6.20;95.10;;;;;;5070686;28;19921;-58
2022/03/11 09:35:25;;;;;;;;;;;6.30;94.80;;;;;;5072287;28;19920;-58
2022/03/11 09:37:52;;;;;;;;;;;6.40;94.40;;;;;;5067703;28;19927;-58
2022/03/11 09:40:18;;;;;;;;;;;6.40;94.90;;;;;;5064795;28;20412;-58
2022/03/11 09:42:46;;;;;;;;;;;6.50;93.30;;;;;;5072224;28;19993;-58
2022/03/11 09:45:13;;;;;;;;;;;6.50;94.60;;;;;;5071755;28;19962;-59
2022/03/11 09:47:41;;;;;;;;;;;6.70;94.10;;;;;;5056459;28;19932;-58
2022/03/11 09:50:09;;;;;;;;;;;6.80;93.10;;;;;;5063365;28;20385;-58
2022/03/11 09:52:38;;;;;;;;;;;6.90;92.40;;;;;;5072007;28;19973;-59
2022/03/11 09:55:07;;;;;;;;;;;7.00;92.10;;;;;;5065815;28;19932;-58
2022/03/11 09:57:34;;;;;;;;;;;7.00;92.20;;;;;;5055200;28;20172;-57
2022/03/11 10:00:01;;;;;;;;;;;7.20;91.60;;;;;;5070449;28;19930;-56
2022/03/11 10:02:40;;;;;;;;;;;7.20;93.30;;;;;;5071905;28;20269;-58
2022/03/11 10:05:07;;;;;;;;;;;7.10;92.90;;;;;;5057771;28;19921;-57
2022/03/11 10:07:58;;;;;;;;;;;7.10;93.90;;;;;;5063265;28;19924;-57
2022/03/11 10:10:25;;;;;;;;;;;7.20;93.20;;;;;;5071370;28;20365;-57
2022/03/11 10:13:09;;;;;;;;;;;7.20;93.60;;;;;;5069644;28;20341;-58
2022/03/11 10:15:37;;;;;;;;;;;7.20;93.00;;;;;;5063169;28;19974;-57
2022/03/11 10:18:08;;;;;;;;;;;7.20;93.60;;;;;;5071601;28;20393;-59
2022/03/11 10:20:35;;;;;;;;;;;7.20;93.30;;;;;;5071451;28;20369;-57
2022/03/11 10:23:13;;;;;;;;;;;7.20;92.50;;;;;;5064899;28;19921;-59
2022/03/11 10:25:40;;;;;;;;;;;7.20;92.70;;;;;;5063344;28;19966;-58
2022/03/11 10:28:12;;;;;;;;;;;7.20;92.10;;;;;;5075657;28;19924;-58
2022/03/11 10:30:40;;;;;;;;;;;7.20;92.90;;;;;;5064624;28;19952;-57
2022/03/11 10:33:10;;;;;;;;;;;7.20;92.60;;;;;;5056764;28;20324;-58
2022/03/11 10:35:38;;;;;;;;;;;7.20;92.60;;;;;;5075654;28;20007;-57
2022/03/11 10:38:09;;;;;;;;;;;7.20;92.70;;;;;;5075568;28;19928;-58
2022/03/11 10:40:40;;;;;;;;;;;7.20;92.20;;;;;;5059504;28;19924;-57
2022/03/11 10:43:12;;;;;;;;;;;7.20;93.30;;;;;;5067187;28;19924;-58
2022/03/11 10:46:11;;;;;;;;;;;7.20;92.40;;;;;;5075302;28;20011;-55
2022/03/11 10:48:48;;;;;;;;;;;7.20;92.80;;;;;;5059950;28;19920;-56
2022/03/11 10:51:25;;;;;;;;;;;7.20;93.50;;;;;;5056137;28;19966;-57
2022/03/11 10:53:52;;;;;;;;;;;7.20;92.80;;;;;;5054935;28;19946;-56
2022/03/11 10:56:33;;;;;;;;;;;7.30;93.50;;;;;;5055646;28;19920;-57
2022/03/11 10:59:06;;;;;;;;;;;7.30;93.30;;;;;;5066342;28;20237;-57
2022/03/11 11:01:34;;;;;;;;;;;7.40;93.90;;;;;;5075205;28;19920;-55
2022/03/11 11:04:02;;;;;;;;;;;7.40;91.80;;;;;;5075348;28;19930;-57
2022/03/11 11:06:29;;;;;;;;;;;7.30;92.40;;;;;;5064756;28;19921;-55
2022/03/11 11:09:03;;;;;;;;;;;7.30;91.40;;;;;;5066227;28;19926;-56
2022/03/11 11:11:30;;;;;;;;;;;7.30;91.70;;;;;;5074995;28;20003;-56
2022/03/11 11:14:04;;;;;;;;;;;7.30;91.40;;;;;;5074816;28;19920;-56
2022/03/11 11:16:32;;;;;;;;;;;7.40;91.40;;;;;;5060000;28;20031;-56
2022/03/11 11:18:59;;;;;;;;;;;7.50;92.00;;;;;;5072744;28;20381;-55
2022/03/11 11:21:26;;;;;;;;;;;7.70;91.20;;;;;;5075005;28;19974;-56
2022/03/11 11:23:55;;;;;;;;;;;7.70;92.20;;;;;;5069542;28;19925;-57
2022/03/11 11:26:23;;;;;;;;;;;7.80;92.70;;;;;;5066177;28;20422;-56
2022/03/11 11:28:54;;;;;;;;;;;7.90;91.70;;;;;;5074086;28;19924;-57
2022/03/11 11:31:22;;;;;;;;;;;8.00;91.60;;;;;;5067389;28;20028;-57
2022/03/11 11:33:49;;;;;;;;;;;8.00;90.40;;;;;;5060710;28;19921;-56
2022/03/11 11:36:35;;;;;;;;;;;8.10;91.40;;;;;;5074458;28;20426;-55
2022/03/11 11:39:11;;;;;;;;;;;8.20;91.60;;;;;;5073740;28;20341;-56
2022/03/11 11:41:38;;;;;;;;;;;8.20;91.20;;;;;;5057962;28;19920;-56
2022/03/11 11:44:08;;;;;;;;;;;8.20;91.00;;;;;;5073667;28;19920;-56
2022/03/11 11:46:36;;;;;;;;;;;8.20;91.50;;;;;;5074391;28;19921;-56
2022/03/11 11:49:04;;;;;;;;;;;8.30;89.80;;;;;;5060901;28;20011;-55
2022/03/11 11:51:31;;;;;;;;;;;8.30;90.80;;;;;;5069030;28;19924;-57
2022/03/11 11:54:08;;;;;;;;;;;8.40;90.70;;;;;;5074074;28;19921;-55
2022/03/11 11:56:39;;;;;;;;;;;8.50;90.60;;;;;;5050902;28;19925;-57
2022/03/11 11:59:10;;;;;;;;;;;8.60;91.10;;;;;;5073058;28;19928;-57
2022/03/11 12:01:41;;;;;;;;;;;8.60;90.70;;;;;;5074077;28;20377;-57
2022/03/11 12:04:21;;;;;;;;;;;8.70;90.40;;;;;;5063315;28;20343;-55
2022/03/11 12:06:51;;;;;;;;;;;8.70;91.20;;;;;;5065426;28;19927;-57
2022/03/11 12:09:36;;;;;;;;;;;8.80;90.80;;;;;;5073270;28;19927;-56
2022/03/11 12:12:03;;;;;;;;;;;8.80;90.20;;;;;;5073924;28;19921;-56
2022/03/11 12:14:30;;;;;;;;;;;8.90;88.80;;;;;;5062062;28;19921;-56
2022/03/11 12:17:01;;;;;;;;;;;8.90;90.20;;;;;;5071791;28;19966;-54
2022/03/11 12:19:35;;;;;;;;;;;8.90;88.70;;;;;;5073450;28;19924;-55
2022/03/11 12:22:21;;;;;;;;;;;9.00;90.20;;;;;;5064209;28;19928;-55
2022/03/11 12:25:01;;;;;;;;;;;9.00;89.80;;;;;;5065197;28;19931;-56
2022/03/11 12:27:46;;;;;;;;;;;9.10;88.30;;;;;;5073635;28;19947;-55
2022/03/11 12:30:13;;;;;;;;;;;9.20;89.30;;;;;;5068299;28;20011;-57
2022/03/11 12:32:41;;;;;;;;;;;9.20;87.50;;;;;;5057628;28;19921;-57
2022/03/11 12:35:09;;;;;;;;;;;9.30;89.10;;;;;;5073182;28;19942;-56
2022/03/11 12:37:36;;;;;;;;;;;9.30;88.30;;;;;;5073316;28;19925;-55
2022/03/11 12:40:08;;;;;;;;;;;9.40;88.10;;;;;;5065896;28;19920;-55
2022/03/11 12:42:39;;;;;;;;;;;9.40;87.80;;;;;;5068422;28;19920;-56
2022/03/11 12:45:06;;;;;;;;;;;9.40;88.70;;;;;;5073218;28;19924;-55
2022/03/11 12:47:38;;;;;;;;;;;9.40;87.80;;;;;;5056019;28;19925;-57
2022/03/11 12:50:07;;;;;;;;;;;9.50;86.10;;;;;;5060078;28;19920;-56
2022/03/11 12:52:35;;;;;;;;;;;9.50;85.80;;;;;;5068213;28;19920;-56
2022/03/11 12:55:18;;;;;;;;;;;9.60;87.10;;;;;;5072914;28;19920;-54
2022/03/11 12:57:44;;;;;;;;;;;9.70;86.50;;;;;;5068615;28;19974;-57
2022/03/11 13:00:22;;;;;;;;;;;9.80;87.80;;;;;;5064134;28;19921;-56
2022/03/11 13:02:50;;;;;;;;;;;9.90;84.30;;;;;;5073019;28;19920;-54
2022/03/11 13:05:19;;;;;;;;;;;9.80;84.10;;;;;;5072685;28;19977;-56
2022/03/11 13:07:46;;;;;;;;;;;9.80;85.50;;;;;;5067384;28;19932;-55
2022/03/11 13:10:14;;;;;;;;;;;9.80;84.20;;;;;;5063691;28;19924;-55
2022/03/11 13:12:43;;;;;;;;;;;9.90;85.90;;;;;;5072691;28;20423;-56
2022/03/11 13:15:11;;;;;;;;;;;9.90;84.00;;;;;;5072497;28;19946;-53
2022/03/11 13:17:45;;;;;;;;;;;10.00;83.20;;;;;;5065438;28;19943;-57
2022/03/11 13:20:25;;;;;;;;;;;10.00;83.40;;;;;;5056805;28;19963;-56
2022/03/11 13:22:52;;;;;;;;;;;10.00;82.30;;;;;;5072298;28;19931;-56
2022/03/11 13:25:23;;;;;;;;;;;10.00;83.20;;;;;;5072454;28;20007;-56
2022/03/11 13:27:49;;;;;;;;;;;10.00;83.90;;;;;;5059246;28;19921;-55
2022/03/11 13:30:27;;;;;;;;;;;10.00;82.70;;;;;;5071979;28;19924;-56
2022/03/11 13:32:54;;;;;;;;;;;10.00;83.20;;;;;;5072195;28;19966;-55
2022/03/11 13:35:28;;;;;;;;;;;10.10;83.00;;;;;;5057318;28;19966;-57
2022/03/11 13:37:55;;;;;;;;;;;10.20;82.40;;;;;;5063671;28;19973;-55
2022/03/11 13:40:37;;;;;;;;;;;10.20;80.70;;;;;;5056375;28;19932;-56
2022/03/11 13:43:04;;;;;;;;;;;10.20;81.90;;;;;;5055273;28;19928;-57
2022/03/11 13:45:32;;;;;;;;;;;10.30;81.40;;;;;;5063604;28;20011;-57
2022/03/11 13:48:05;;;;;;;;;;;10.40;81.80;;;;;;5071993;28;20039;-57
2022/03/11 13:50:32;;;;;;;;;;;10.40;80.70;;;;;;5068845;28;19920;-55
2022/03/11 13:52:59;;;;;;;;;;;10.40;82.30;;;;;;5060780;28;19970;-56
2022/03/11 13:55:37;;;;;;;;;;;10.40;80.60;;;;;;5071838;28;19921;-57
2022/03/11 13:58:13;;;;;;;;;;;10.50;80.70;;;;;;5071753;28;19920;-57
2022/03/11 14:00:40;;;;;;;;;;;10.40;81.30;;;;;;5062964;28;19927;-56
2022/03/11 14:03:33;;;;;;;;;;;10.50;81.00;;;;;;5063462;28;19928;-57
2022/03/11 14:06:00;;;;;;;;;;;10.50;80.50;;;;;;5067593;28;20399;-54
2022/03/11 14:08:49;;;;;;;;;;;10.40;80.30;;;;;;5067600;28;19927;-55
2022/03/11 14:11:21;;;;;;;;;;;10.30;80.00;;;;;;5064444;28;19920;-57
2022/03/11 14:13:48;;;;;;;;;;;10.30;79.80;;;;;;5071582;28;19974;-56
2022/03/11 14:16:14;;;;;;;;;;;10.20;79.00;;;;;;5066274;28;20006;-56
2022/03/11 14:18:42;;;;;;;;;;;10.30;79.70;;;;;;5063070;28;19931;-56
2022/03/11 14:21:10;;;;;;;;;;;10.30;81.00;;;;;;5071444;28;19920;-56
2022/03/11 14:23:36;;;;;;;;;;;10.40;78.60;;;;;;5071519;28;19920;-56
2022/03/11 14:26:03;;;;;;;;;;;10.30;79.00;;;;;;5064522;28;19967;-57
2022/03/11 14:28:30;;;;;;;;;;;10.40;78.20;;;;;;5062933;28;20314;-56
2022/03/11 14:30:57;;;;;;;;;;;10.40;79.30;;;;;;5071333;28;19921;-56
2022/03/11 14:33:27;;;;;;;;;;;10.40;79.10;;;;;;5071243;28;19925;-57